»·PEaware :: N210LD KHND-KSBA

N210LD :: KHND-KSBA

FLIGHT INFORMATION

Flight Status: Arrived
Operator: Privately registered:
United States
More flights under this callsign
Pilot: Slade E. (12022)
Aircraft: CESSNA T210 TURBO CENTURION
(T210)
More flights by this aircraft type
Origin: KHND Henderson
United States
Destination: KSBA Santa Barbara Mun
United States
More flights between these airports :: More routes between these airports
Route: +GFS HEC PMD V12 RZS
File this flight plan on PilotEdge
Remarks:
Altitude:
(Current/Filed)
18,000ft
Speed:
(Current/Filed)
165kts
Departed: 09-Feb-19 06:37 PM
Arrived: 09-Feb-19 08:39 PM
Distance/Time
Traveled:
249nm/2:02
Distance/Time
To Go:
Arrived

Flight Plot

Page will automatically refresh every two minutes.

Flight plan parsing failed; only flown route is shown


Map Options




Map Legend


Flown Route
Filed Route
Departure Airport
Arrival Airport
Navaid (VOR, NDB)
Fix

Horizontal Profiles

Position Reports

Time Latitude Longitude Heading Altitude Ground
Speed
09-Feb-19 18:13 35.975111 -115.138211 0 2447ft 0kts
09-Feb-19 18:14 35.975111 -115.138211 0 2447ft 0kts
09-Feb-19 18:15 35.975111 -115.138211 0 2447ft 0kts
09-Feb-19 18:16 35.975111 -115.138211 0 2447ft 0kts
09-Feb-19 18:17 35.975111 -115.138211 0 2447ft 0kts
09-Feb-19 18:18 35.975111 -115.138211 0 2447ft 0kts
09-Feb-19 18:19 35.975111 -115.138211 0 2447ft 0kts
09-Feb-19 18:20 35.975111 -115.138211 0 2447ft 0kts
09-Feb-19 18:21 35.975111 -115.138211 0 2447ft 0kts
09-Feb-19 18:22 35.975111 -115.138211 0 2447ft 0kts
09-Feb-19 18:23 35.975111 -115.138211 0 2447ft 0kts
09-Feb-19 18:24 35.975111 -115.138211 0 2447ft 0kts
09-Feb-19 18:25 35.975111 -115.138211 0 2447ft 0kts
09-Feb-19 18:26 35.975111 -115.138211 0 2447ft 0kts
09-Feb-19 18:27 35.975111 -115.138211 0 2447ft 0kts
09-Feb-19 18:28 35.975256 -115.137797 88 2447ft 6kts
09-Feb-19 18:29 35.975291 -115.137168 66 2447ft 3kts
09-Feb-19 18:30 35.977122 -115.136899 359 2447ft 8kts
09-Feb-19 18:31 35.979203 -115.136730 60 2447ft 3kts
09-Feb-19 18:32 35.980946 -115.136769 345 2447ft 6kts
09-Feb-19 18:33 35.980961 -115.136573 155 2447ft 0kts
09-Feb-19 18:34 35.980961 -115.136573 155 2447ft 0kts
09-Feb-19 18:35 35.980924 -115.136550 150 2447ft 4kts
09-Feb-19 18:36 35.973896 -115.135256 179 2500ft 80kts
09-Feb-19 18:37 35.949677 -115.140159 196 3505ft 97kts
09-Feb-19 18:38 35.924512 -115.148727 199 4655ft 99kts
09-Feb-19 18:39 35.898507 -115.158297 193 5659ft 95kts
09-Feb-19 18:40 35.873610 -115.161603 190 6635ft 85kts
09-Feb-19 18:41 35.851597 -115.163583 190 7567ft 76kts
09-Feb-19 18:42 35.827049 -115.166508 190 8176ft 102kts
09-Feb-19 18:43 35.795973 -115.170601 190 8723ft 120kts
09-Feb-19 18:44 35.761160 -115.175466 190 9247ft 131kts
09-Feb-19 18:45 35.725255 -115.179736 190 9963ft 124kts
09-Feb-19 18:46 35.691865 -115.181996 190 10738ft 117kts
09-Feb-19 18:47 35.659473 -115.182657 190 11525ft 115kts
09-Feb-19 18:48 35.627574 -115.181851 190 12313ft 114kts
09-Feb-19 18:49 35.595549 -115.180062 190 13040ft 119kts
09-Feb-19 18:50 35.559892 -115.178652 190 13569ft 135kts
09-Feb-19 18:51 35.521004 -115.177441 190 14096ft 143kts
09-Feb-19 18:52 35.480791 -115.175892 190 14694ft 146kts
09-Feb-19 18:53 35.439712 -115.173959 190 15290ft 150kts
09-Feb-19 18:54 35.397709 -115.171670 190 15884ft 152kts
09-Feb-19 18:55 35.354943 -115.169008 190 16479ft 154kts
09-Feb-19 18:56 35.319262 -115.179694 258 17070ft 116kts
09-Feb-19 18:57 35.311743 -115.217161 258 17665ft 114kts
09-Feb-19 18:58 35.299271 -115.254090 254 17985ft 131kts
09-Feb-19 18:59 35.282490 -115.297047 251 17970ft 141kts
09-Feb-19 19:00 35.265009 -115.340047 251 17969ft 141kts
09-Feb-19 19:01 35.247153 -115.383676 251 17972ft 146kts
09-Feb-19 19:03 35.228708 -115.428447 251 17971ft 149kts
09-Feb-19 19:04 35.209356 -115.475200 251 17970ft 157kts
09-Feb-19 19:05 35.189310 -115.523810 250 17969ft 160kts
09-Feb-19 19:06 35.168991 -115.573057 250 17968ft 161kts
09-Feb-19 19:07 35.148532 -115.622610 251 17967ft 162kts
09-Feb-19 19:08 35.128252 -115.671763 250 17977ft 162kts
09-Feb-19 19:09 35.107633 -115.721407 250 17976ft 164kts
09-Feb-19 19:10 35.086926 -115.771298 250 17975ft 165kts
09-Feb-19 19:11 35.066123 -115.821550 250 17975ft 166kts
09-Feb-19 19:12 35.045195 -115.871708 250 17983ft 166kts
09-Feb-19 19:13 35.024357 -115.921924 250 17983ft 166kts
09-Feb-19 19:14 35.003396 -115.972212 250 17983ft 166kts
09-Feb-19 19:15 34.982426 -116.022376 250 17983ft 166kts
09-Feb-19 19:16 34.961335 -116.072809 250 17982ft 167kts
09-Feb-19 19:17 34.940171 -116.123293 250 17982ft 167kts
09-Feb-19 19:18 34.919049 -116.173698 250 17981ft 166kts
09-Feb-19 19:19 34.898030 -116.223733 250 17979ft 165kts
09-Feb-19 19:20 34.877097 -116.273445 250 17978ft 164kts
09-Feb-19 19:21 34.856359 -116.322624 250 17985ft 163kts
09-Feb-19 19:21 34.839014 -116.363703 250 17991ft 163kts
09-Feb-19 19:23 34.814757 -116.421054 249 18000ft 164kts
09-Feb-19 19:24 34.797672 -116.471903 263 18005ft 160kts
09-Feb-19 19:24 34.792059 -116.516705 266 18007ft 160kts
09-Feb-19 19:25 34.786550 -116.570332 267 18007ft 159kts
09-Feb-19 19:26 34.781246 -116.623856 267 18009ft 159kts
09-Feb-19 19:28 34.775143 -116.685837 266 18019ft 159kts
09-Feb-19 19:28 34.770713 -116.730605 266 18020ft 160kts
09-Feb-19 19:29 34.765355 -116.784617 266 18021ft 160kts
09-Feb-19 19:30 34.759987 -116.838435 266 18023ft 160kts
09-Feb-19 19:31 34.754590 -116.892343 266 18024ft 160kts
09-Feb-19 19:32 34.749174 -116.946245 266 17950ft 164kts
09-Feb-19 19:33 34.743400 -117.003824 266 17465ft 176kts
09-Feb-19 19:34 34.737282 -117.063913 266 16965ft 180kts
09-Feb-19 19:35 34.731097 -117.124595 266 16457ft 181kts
09-Feb-19 19:36 34.724859 -117.185411 266 15947ft 182kts
09-Feb-19 19:37 34.718562 -117.246354 266 15433ft 181kts
09-Feb-19 19:38 34.712305 -117.306809 266 14913ft 179kts
09-Feb-19 19:39 34.706074 -117.366588 266 14391ft 177kts
09-Feb-19 19:40 34.699954 -117.425076 266 13995ft 168kts
09-Feb-19 19:41 34.694259 -117.479089 266 13995ft 156kts
09-Feb-19 19:42 34.688800 -117.530746 266 13995ft 153kts
09-Feb-19 19:43 34.683452 -117.582236 266 13995ft 154kts
09-Feb-19 19:44 34.678016 -117.633997 266 13995ft 154kts
09-Feb-19 19:45 34.672472 -117.686001 265 14002ft 155kts
09-Feb-19 19:46 34.666869 -117.738353 265 14001ft 156kts
09-Feb-19 19:47 34.661217 -117.790784 265 14000ft 155kts
09-Feb-19 19:48 34.655636 -117.842409 265 14000ft 153kts
09-Feb-19 19:49 34.649950 -117.893464 266 14007ft 151kts
09-Feb-19 19:50 34.644518 -117.944537 265 14015ft 152kts
09-Feb-19 19:51 34.639015 -117.995010 266 14019ft 145kts
09-Feb-19 19:52 34.633796 -118.042185 265 14026ft 137kts
09-Feb-19 19:53 34.629814 -118.087733 268 14035ft 133kts
09-Feb-19 19:54 34.626867 -118.132647 268 14035ft 132kts
09-Feb-19 19:55 34.623983 -118.177236 268 14034ft 131kts
09-Feb-19 19:56 34.621106 -118.221084 268 14034ft 131kts
09-Feb-19 19:57 34.618266 -118.265156 268 14034ft 129kts
09-Feb-19 19:58 34.615382 -118.308927 268 14033ft 129kts
09-Feb-19 19:59 34.612480 -118.352583 268 14033ft 129kts
09-Feb-19 20:00 34.609480 -118.396359 268 14033ft 130kts
09-Feb-19 20:01 34.606598 -118.440386 268 14033ft 130kts
09-Feb-19 20:02 34.603644 -118.484312 268 14032ft 130kts
09-Feb-19 20:03 34.600656 -118.528322 268 14032ft 130kts
09-Feb-19 20:04 34.597609 -118.572061 268 14016ft 130kts
09-Feb-19 20:05 34.594390 -118.618565 268 13615ft 145kts
09-Feb-19 20:06 34.590983 -118.667677 268 13116ft 149kts
09-Feb-19 20:07 34.587454 -118.718396 268 12624ft 148kts
09-Feb-19 20:08 34.584012 -118.768663 268 12129ft 147kts
09-Feb-19 20:09 34.580625 -118.817894 268 11631ft 145kts
09-Feb-19 20:10 34.577183 -118.866800 267 11131ft 144kts
09-Feb-19 20:11 34.573724 -118.915453 267 10630ft 144kts
09-Feb-19 20:12 34.570221 -118.964279 266 10128ft 145kts
09-Feb-19 20:13 34.566560 -119.013681 266 9628ft 147kts
09-Feb-19 20:14 34.563025 -119.063370 265 9125ft 148kts
09-Feb-19 20:15 34.559506 -119.111350 265 8986ft 134kts
09-Feb-19 20:16 34.556289 -119.155239 265 8989ft 128kts
09-Feb-19 20:17 34.553085 -119.197607 265 8989ft 124kts
09-Feb-19 20:18 34.550106 -119.237520 265 8989ft 123kts
09-Feb-19 20:19 34.547047 -119.278761 265 8989ft 122kts
09-Feb-19 20:20 34.544032 -119.319728 265 8989ft 122kts
09-Feb-19 20:21 34.540965 -119.360715 265 8989ft 121kts
09-Feb-19 20:22 34.513644 -119.386230 203 8634ft 149kts
09-Feb-19 20:23 34.472865 -119.402302 203 8137ft 156kts
09-Feb-19 20:24 34.432168 -119.418476 203 7615ft 145kts
09-Feb-19 20:25 34.395031 -119.432914 203 6751ft 143kts
09-Feb-19 20:26 34.361260 -119.454614 251 5750ft 137kts
09-Feb-19 20:27 34.363607 -119.500248 277 4745ft 135kts
09-Feb-19 20:28 34.368917 -119.545651 277 3738ft 137kts
09-Feb-19 20:29 34.374255 -119.590876 277 2980ft 122kts
09-Feb-19 20:30 34.382427 -119.626809 292 2601ft 111kts
09-Feb-19 20:31 34.395436 -119.660774 292 2097ft 111kts
09-Feb-19 20:32 34.408227 -119.695038 292 1603ft 113kts
09-Feb-19 20:33 34.419421 -119.725424 292 1455ft 73kts
09-Feb-19 20:34 34.424119 -119.749557 280 1115ft 73kts
09-Feb-19 20:35 34.427195 -119.773876 280 852ft 71kts
09-Feb-19 20:36 34.428748 -119.798513 267 675ft 70kts
09-Feb-19 20:37 34.428057 -119.822315 268 315ft 71kts
09-Feb-19 20:38 34.427716 -119.843706 267 16ft 36kts
09-Feb-19 20:39 34.426526 -119.845936 110 16ft 3kts
09-Feb-19 20:40 34.426581 -119.844344 88 16ft 7kts
09-Feb-19 20:41 34.426613 -119.842971 90 16ft 3kts
09-Feb-19 20:42 34.426701 -119.839574 88 16ft 9kts
09-Feb-19 20:43 34.425443 -119.837958 165 16ft 9kts
09-Feb-19 20:44 34.422370 -119.837110 165 16ft 13kts
09-Feb-19 20:45 34.420044 -119.836002 47 16ft 7kts
09-Feb-19 20:46 34.421768 -119.835959 88 16ft 0kts
09-Feb-19 20:47 34.421768 -119.835959 88 16ft 0kts

Navigation Log

Ident Type
Flight plan parsing failed, navigation log unavailable